createdAt,value
2019-05-19T00:00:27.178Z,0.00
2019-05-19T00:01:27.173Z,0.00
2019-05-19T00:02:27.149Z,0.00
2019-05-19T00:03:27.141Z,0.00
2019-05-19T00:04:27.147Z,0.00
2019-05-19T00:05:27.115Z,0.00
2019-05-19T00:06:27.109Z,0.00
2019-05-19T00:07:27.095Z,0.00
2019-05-19T00:08:27.101Z,0.00
2019-05-19T00:09:27.086Z,0.00
2019-05-19T00:10:27.073Z,0.00
2019-05-19T00:11:27.075Z,0.00
2019-05-19T00:12:27.040Z,0.00
2019-05-19T00:13:27.025Z,0.00
2019-05-19T00:14:27.013Z,0.00
2019-05-19T00:15:27.029Z,0.00
2019-05-19T00:16:26.998Z,0.00
2019-05-19T00:17:26.981Z,0.00
2019-05-19T00:18:26.969Z,0.00
2019-05-19T00:19:27.262Z,0.00
2019-05-19T00:20:26.950Z,0.00
2019-05-19T00:21:26.973Z,0.00
2019-05-19T00:22:26.928Z,0.00
2019-05-19T00:23:26.917Z,0.00
2019-05-19T00:24:26.912Z,0.00
2019-05-19T00:25:26.903Z,0.00
2019-05-19T00:26:26.882Z,0.00
2019-05-19T00:27:26.887Z,0.00
2019-05-19T00:28:26.860Z,0.00
2019-05-19T00:29:26.849Z,0.00
2019-05-19T00:30:26.839Z,0.00
2019-05-19T00:31:26.833Z,0.00
2019-05-19T00:32:26.816Z,0.00
2019-05-19T00:33:26.814Z,0.00
2019-05-19T00:34:26.794Z,0.00
2019-05-19T00:35:26.838Z,0.00
2019-05-19T00:36:26.814Z,0.00
2019-05-19T00:37:26.753Z,0.00
2019-05-19T00:38:26.754Z,0.00
2019-05-19T00:39:26.760Z,0.00
2019-05-19T00:40:26.772Z,0.00
2019-05-19T00:41:26.723Z,0.00
2019-05-19T00:42:26.713Z,0.00
2019-05-19T00:43:26.691Z,0.00
2019-05-19T00:44:26.679Z,0.00
2019-05-19T00:45:26.674Z,0.00
2019-05-19T00:46:26.666Z,0.00
2019-05-19T00:47:26.657Z,0.00
2019-05-19T00:48:26.636Z,0.00
2019-05-19T00:49:38.889Z,0.00
2019-05-19T00:50:27.604Z,0.00
2019-05-19T00:51:26.598Z,0.00
2019-05-19T00:52:26.629Z,0.00
2019-05-19T00:53:26.584Z,0.00
2019-05-19T00:54:26.565Z,0.00
2019-05-19T00:55:26.565Z,0.00
2019-05-19T00:56:26.538Z,0.00
2019-05-19T00:57:26.533Z,0.00
2019-05-19T00:58:26.531Z,0.00
2019-05-19T00:59:26.515Z,0.00
2019-05-19T01:00:26.499Z,0.00
2019-05-19T01:01:26.495Z,0.00
2019-05-19T01:02:26.475Z,0.00
2019-05-19T01:03:26.479Z,0.00
2019-05-19T01:04:26.451Z,0.00
2019-05-19T01:05:26.450Z,0.00
2019-05-19T01:06:26.436Z,0.00
2019-05-19T01:07:26.434Z,0.00
2019-05-19T01:08:26.450Z,0.00
2019-05-19T01:09:26.401Z,0.00
2019-05-19T01:10:26.392Z,0.00
2019-05-19T01:11:26.398Z,0.00
2019-05-19T01:12:26.375Z,0.00
2019-05-19T01:13:26.376Z,0.00
2019-05-19T01:14:26.401Z,0.00
2019-05-19T01:15:26.331Z,0.00
2019-05-19T01:16:26.327Z,0.00
2019-05-19T01:17:26.327Z,0.00
2019-05-19T01:18:26.311Z,0.00
2019-05-19T01:19:26.309Z,0.00
2019-05-19T01:20:26.284Z,0.00
2019-05-19T01:21:26.270Z,0.00
2019-05-19T01:22:26.277Z,0.00
2019-05-19T01:23:26.249Z,0.00
2019-05-19T01:24:26.268Z,0.00
2019-05-19T01:25:26.220Z,0.00
2019-05-19T01:26:26.212Z,0.00
2019-05-19T01:27:26.204Z,0.00
2019-05-19T01:28:26.194Z,0.00
2019-05-19T01:29:26.180Z,0.00
2019-05-19T01:30:26.182Z,0.00
2019-05-19T01:31:26.184Z,0.00
2019-05-19T01:32:26.142Z,0.00
2019-05-19T01:33:26.147Z,0.00
2019-05-19T01:34:26.120Z,0.00
2019-05-19T01:35:26.153Z,0.00
2019-05-19T01:36:26.113Z,0.00
2019-05-19T01:37:26.123Z,0.00
2019-05-19T01:38:26.083Z,0.00
2019-05-19T01:39:26.094Z,0.00
2019-05-19T01:40:26.051Z,0.00
2019-05-19T01:41:26.089Z,0.00
2019-05-19T01:42:26.033Z,0.00
2019-05-19T01:43:26.023Z,0.00
2019-05-19T01:44:26.014Z,0.00
2019-05-19T01:45:26.016Z,0.00
2019-05-19T01:46:25.991Z,0.00
2019-05-19T01:47:26.020Z,0.00
2019-05-19T01:48:28.022Z,0.00
2019-05-19T01:49:25.959Z,0.00
2019-05-19T01:50:25.948Z,0.00
2019-05-19T01:51:25.938Z,0.00
2019-05-19T01:52:25.923Z,0.00
2019-05-19T01:53:25.924Z,0.00
2019-05-19T01:54:25.900Z,0.00
2019-05-19T01:55:25.888Z,0.00
2019-05-19T01:56:25.881Z,0.00
2019-05-19T01:57:25.875Z,0.00
2019-05-19T01:58:25.855Z,0.00
2019-05-19T01:59:25.862Z,0.00
2019-05-19T02:00:25.839Z,0.00
2019-05-19T02:01:25.822Z,0.00
2019-05-19T02:02:25.815Z,0.00
2019-05-19T02:03:25.800Z,0.00
2019-05-19T02:04:25.865Z,0.00
2019-05-19T02:05:25.799Z,0.00
2019-05-19T02:06:25.766Z,0.00
2019-05-19T02:07:25.761Z,0.00
2019-05-19T02:08:25.763Z,0.00
2019-05-19T02:09:25.769Z,0.00
2019-05-19T02:10:25.735Z,0.00
2019-05-19T02:11:25.739Z,0.00
2019-05-19T02:12:25.700Z,0.00
2019-05-19T02:13:25.689Z,0.00
2019-05-19T02:14:25.678Z,0.00
2019-05-19T02:15:25.674Z,0.00
2019-05-19T02:16:25.657Z,0.00
2019-05-19T02:17:25.645Z,0.00
2019-05-19T02:18:25.637Z,0.00
2019-05-19T02:19:25.624Z,0.00
2019-05-19T02:20:33.277Z,0.00
2019-05-19T02:21:26.603Z,0.00
2019-05-19T02:22:25.593Z,0.00
2019-05-19T02:23:25.579Z,0.00
2019-05-19T02:24:25.568Z,0.00
2019-05-19T02:25:25.562Z,0.00
2019-05-19T02:26:25.554Z,0.00
2019-05-19T02:27:25.532Z,0.00
2019-05-19T02:28:25.521Z,0.00
2019-05-19T02:29:25.532Z,0.00
2019-05-19T02:30:25.496Z,0.00
2019-05-19T02:31:25.493Z,0.00
2019-05-19T02:32:25.481Z,0.00
2019-05-19T02:33:25.471Z,0.00
2019-05-19T02:34:25.501Z,0.00
2019-05-19T02:35:25.439Z,0.00
2019-05-19T02:36:25.477Z,0.00
2019-05-19T02:37:25.422Z,0.00
2019-05-19T02:38:25.416Z,0.00
2019-05-19T02:39:25.404Z,0.00
2019-05-19T02:40:25.384Z,0.00
2019-05-19T02:41:25.375Z,0.00
2019-05-19T02:42:25.374Z,0.00
2019-05-19T02:43:25.365Z,0.00
2019-05-19T02:44:25.385Z,0.00
2019-05-19T02:45:25.361Z,0.00
2019-05-19T02:46:25.326Z,0.00
2019-05-19T02:47:25.320Z,0.00
2019-05-19T02:48:25.312Z,0.00
2019-05-19T02:49:25.289Z,0.00
2019-05-19T02:50:25.275Z,0.00
2019-05-19T02:51:25.279Z,0.00
2019-05-19T02:52:25.255Z,0.00
2019-05-19T02:53:25.245Z,0.00
2019-05-19T02:54:25.234Z,0.00
2019-05-19T02:55:25.227Z,5.62
2019-05-19T02:56:25.218Z,5.62
2019-05-19T02:57:25.207Z,5.62
2019-05-19T02:58:25.190Z,5.62
2019-05-19T02:59:25.176Z,5.62
2019-05-19T03:00:25.168Z,11.25
2019-05-19T03:01:25.160Z,11.25
2019-05-19T03:02:25.157Z,11.25
2019-05-19T03:03:25.128Z,11.25
2019-05-19T03:04:25.147Z,11.25
2019-05-19T03:05:25.114Z,16.88
2019-05-19T03:06:25.109Z,16.88
2019-05-19T03:07:25.109Z,16.88
2019-05-19T03:08:25.083Z,16.88
2019-05-19T03:09:25.078Z,16.88
2019-05-19T03:10:25.088Z,22.50
2019-05-19T03:11:25.041Z,22.50
2019-05-19T03:12:25.045Z,22.50
2019-05-19T03:13:25.026Z,22.50
2019-05-19T03:14:25.010Z,22.50
2019-05-19T03:15:25.012Z,28.12
2019-05-19T03:16:25.019Z,28.12
2019-05-19T03:17:24.978Z,28.12
2019-05-19T03:18:24.974Z,28.12
2019-05-19T03:19:24.971Z,33.75
2019-05-19T03:20:24.987Z,33.75
2019-05-19T03:21:24.943Z,33.75
2019-05-19T03:22:24.923Z,39.38
2019-05-19T03:23:24.915Z,39.38
2019-05-19T03:24:24.912Z,39.38
2019-05-19T03:25:24.896Z,45.00
2019-05-19T03:26:24.876Z,45.00
2019-05-19T03:27:24.871Z,45.00
2019-05-19T03:28:24.861Z,50.62
2019-05-19T03:29:24.842Z,50.62
2019-05-19T03:30:24.873Z,50.62
2019-05-19T03:31:24.852Z,56.25
2019-05-19T03:32:24.814Z,56.25
2019-05-19T03:33:24.841Z,61.88
2019-05-19T03:34:24.794Z,61.88
2019-05-19T03:35:24.777Z,67.50
2019-05-19T03:36:24.781Z,67.50
2019-05-19T03:37:24.766Z,73.12
2019-05-19T03:38:24.762Z,78.75
2019-05-19T03:39:24.738Z,78.75
2019-05-19T03:40:24.728Z,84.38
2019-05-19T03:41:24.716Z,90.00
2019-05-19T03:42:24.714Z,90.00
2019-05-19T03:43:24.725Z,95.62
2019-05-19T03:44:24.676Z,95.62
2019-05-19T03:45:24.677Z,101.25
2019-05-19T03:46:24.681Z,101.25
2019-05-19T03:47:24.653Z,101.25
2019-05-19T03:48:24.633Z,101.25
2019-05-19T03:49:24.623Z,101.25
2019-05-19T03:50:24.623Z,106.88
2019-05-19T03:51:30.795Z,106.88
2019-05-19T03:52:25.601Z,106.88
2019-05-19T03:53:24.583Z,106.88
2019-05-19T03:54:24.587Z,112.50
2019-05-19T03:55:24.577Z,112.50
2019-05-19T03:56:24.569Z,118.12
2019-05-19T03:57:24.549Z,123.75
2019-05-19T03:58:24.528Z,118.12
2019-05-19T03:59:24.516Z,129.38
2019-05-19T04:00:24.504Z,129.38
2019-05-19T04:01:24.499Z,135.00
2019-05-19T04:02:24.491Z,135.00
2019-05-19T04:03:24.466Z,140.62
2019-05-19T04:04:24.538Z,140.62
2019-05-19T04:05:24.466Z,146.25
2019-05-19T04:06:24.444Z,146.25
2019-05-19T04:07:24.420Z,151.88
2019-05-19T04:08:24.431Z,151.88
2019-05-19T04:09:24.430Z,157.50
2019-05-19T04:10:24.399Z,163.12
2019-05-19T04:11:24.386Z,168.75
2019-05-19T04:12:24.372Z,168.75
2019-05-19T04:13:24.360Z,174.38
2019-05-19T04:14:24.346Z,174.38
2019-05-19T04:15:24.341Z,174.38
2019-05-19T04:16:24.326Z,180.00
2019-05-19T04:17:24.309Z,185.62
2019-05-19T04:18:24.322Z,185.62
2019-05-19T04:19:24.297Z,185.62
2019-05-19T04:20:24.275Z,196.88
2019-05-19T04:21:24.273Z,191.25
2019-05-19T04:22:24.258Z,191.25
2019-05-19T04:23:24.254Z,196.88
2019-05-19T04:24:24.238Z,196.88
2019-05-19T04:25:24.234Z,202.50
2019-05-19T04:26:24.215Z,202.50
2019-05-19T04:27:24.230Z,208.12
2019-05-19T04:28:24.224Z,208.12
2019-05-19T04:29:24.180Z,213.75
2019-05-19T04:30:24.164Z,208.12
2019-05-19T04:31:24.159Z,208.12
2019-05-19T04:32:24.173Z,213.75
2019-05-19T04:33:24.134Z,219.38
2019-05-19T04:34:24.146Z,219.38
2019-05-19T04:35:24.117Z,230.62
2019-05-19T04:36:24.101Z,236.25
2019-05-19T04:37:24.130Z,247.50
2019-05-19T04:38:24.079Z,247.50
2019-05-19T04:39:24.098Z,247.50
2019-05-19T04:40:24.090Z,253.12
2019-05-19T04:41:24.053Z,253.12
2019-05-19T04:42:24.040Z,253.12
2019-05-19T04:43:24.069Z,253.12
2019-05-19T04:44:24.013Z,258.75
2019-05-19T04:45:24.016Z,264.38
2019-05-19T04:46:23.997Z,264.38
2019-05-19T04:47:23.989Z,270.00
2019-05-19T04:48:24.001Z,275.62
2019-05-19T04:49:24.041Z,275.62
2019-05-19T04:50:23.951Z,286.88
2019-05-19T04:51:23.945Z,292.50
2019-05-19T04:52:23.932Z,303.75
2019-05-19T04:53:23.919Z,315.00
2019-05-19T04:54:23.941Z,320.62
2019-05-19T04:55:23.914Z,326.25
2019-05-19T04:56:23.888Z,337.50
2019-05-19T04:57:23.878Z,354.38
2019-05-19T04:58:23.861Z,360.00
2019-05-19T04:59:23.862Z,371.25
2019-05-19T05:00:23.844Z,376.88
2019-05-19T05:01:23.829Z,382.50
2019-05-19T05:02:23.818Z,388.12
2019-05-19T05:03:23.802Z,393.75
2019-05-19T05:04:29.129Z,399.38
2019-05-19T05:05:24.797Z,399.38
2019-05-19T05:06:23.775Z,399.38
2019-05-19T05:07:23.764Z,399.38
2019-05-19T05:08:29.779Z,388.12
2019-05-19T05:09:24.746Z,388.12
2019-05-19T05:10:23.727Z,388.12
2019-05-19T05:11:23.752Z,376.88
2019-05-19T05:12:23.703Z,365.62
2019-05-19T05:13:23.698Z,354.38
2019-05-19T05:14:23.683Z,343.12
2019-05-19T05:15:23.677Z,331.88
2019-05-19T05:16:23.663Z,331.88
2019-05-19T05:17:23.662Z,320.62
2019-05-19T05:18:23.643Z,320.62
2019-05-19T05:19:23.622Z,326.25
2019-05-19T05:20:23.618Z,326.25
2019-05-19T05:21:23.627Z,326.25
2019-05-19T05:22:23.596Z,320.62
2019-05-19T05:23:23.586Z,315.00
2019-05-19T05:24:23.566Z,315.00
2019-05-19T05:25:23.555Z,315.00
2019-05-19T05:26:23.562Z,320.62
2019-05-19T05:27:23.533Z,331.88
2019-05-19T05:28:23.539Z,343.12
2019-05-19T05:29:23.514Z,348.75
2019-05-19T05:30:23.504Z,360.00
2019-05-19T05:31:23.487Z,371.25
2019-05-19T05:32:23.497Z,388.12
2019-05-19T05:33:23.475Z,399.38
2019-05-19T05:34:23.488Z,410.62
2019-05-19T05:35:23.463Z,421.88
2019-05-19T05:36:23.437Z,438.75
2019-05-19T05:37:23.425Z,450.00
2019-05-19T05:38:23.416Z,450.00
2019-05-19T05:39:23.438Z,444.38
2019-05-19T05:40:23.391Z,438.75
2019-05-19T05:41:23.375Z,427.50
2019-05-19T05:42:23.371Z,427.50
2019-05-19T05:43:23.353Z,427.50
2019-05-19T05:44:23.370Z,421.88
2019-05-19T05:45:23.365Z,416.25
2019-05-19T05:46:23.327Z,405.00
2019-05-19T05:47:23.314Z,393.75
2019-05-19T05:48:23.305Z,371.25
2019-05-19T05:49:23.291Z,348.75
2019-05-19T05:50:23.283Z,331.88
2019-05-19T05:51:23.275Z,320.62
2019-05-19T05:52:37.460Z,309.38
2019-05-19T05:53:24.240Z,303.75
2019-05-19T05:54:23.238Z,298.12
2019-05-19T05:55:23.234Z,298.12
2019-05-19T05:56:23.216Z,292.50
2019-05-19T05:57:23.224Z,292.50
2019-05-19T05:58:23.196Z,298.12
2019-05-19T05:59:23.176Z,303.75
2019-05-19T06:00:23.202Z,303.75
2019-05-19T06:01:23.164Z,309.38
2019-05-19T06:02:23.144Z,315.00
2019-05-19T06:03:23.133Z,320.62
2019-05-19T06:04:23.126Z,320.62
2019-05-19T06:05:23.112Z,326.25
2019-05-19T06:06:23.129Z,337.50
2019-05-19T06:07:23.115Z,331.88
2019-05-19T06:08:23.079Z,348.75
2019-05-19T06:09:23.072Z,354.38
2019-05-19T06:10:23.060Z,371.25
2019-05-19T06:11:23.050Z,388.12
2019-05-19T06:12:23.053Z,405.00
2019-05-19T06:13:23.028Z,405.00
2019-05-19T06:14:23.018Z,405.00
2019-05-19T06:15:23.052Z,405.00
2019-05-19T06:16:22.990Z,405.00
2019-05-19T06:17:23.005Z,410.62
2019-05-19T06:18:22.970Z,416.25
2019-05-19T06:19:23.011Z,416.25
2019-05-19T06:20:22.964Z,421.88
2019-05-19T06:21:22.942Z,427.50
2019-05-19T06:22:22.929Z,421.88
2019-05-19T06:23:22.921Z,416.25
2019-05-19T06:24:22.903Z,410.62
2019-05-19T06:25:22.910Z,399.38
2019-05-19T06:26:22.882Z,382.50
2019-05-19T06:27:22.873Z,376.88
2019-05-19T06:28:22.868Z,371.25
2019-05-19T06:29:22.853Z,360.00
2019-05-19T06:30:22.841Z,354.38
2019-05-19T06:31:22.833Z,343.12
2019-05-19T06:32:22.816Z,331.88
2019-05-19T06:33:22.851Z,326.25
2019-05-19T06:34:22.798Z,320.62
2019-05-19T06:35:22.784Z,315.00
2019-05-19T06:36:22.791Z,309.38
2019-05-19T06:37:22.769Z,309.38
2019-05-19T06:38:22.761Z,303.75
2019-05-19T06:39:22.749Z,303.75
2019-05-19T06:40:22.728Z,303.75
2019-05-19T06:41:22.715Z,303.75
2019-05-19T06:42:22.705Z,309.38
2019-05-19T06:43:22.718Z,309.38
2019-05-19T06:44:22.695Z,309.38
2019-05-19T06:45:22.903Z,309.38
2019-05-19T06:46:22.667Z,309.38
2019-05-19T06:47:22.660Z,309.38
2019-05-19T06:48:22.644Z,309.38
2019-05-19T06:49:22.645Z,315.00
2019-05-19T06:50:22.617Z,315.00
2019-05-19T06:51:22.612Z,315.00
2019-05-19T06:52:22.597Z,315.00
2019-05-19T06:53:22.592Z,315.00
2019-05-19T06:54:22.603Z,315.00
2019-05-19T06:55:22.623Z,320.62
2019-05-19T06:56:22.573Z,320.62
2019-05-19T06:57:22.547Z,320.62
2019-05-19T06:58:22.532Z,326.25
2019-05-19T06:59:22.529Z,326.25
2019-05-19T07:00:22.531Z,331.88
2019-05-19T07:01:22.509Z,337.50
2019-05-19T07:02:22.494Z,337.50
2019-05-19T07:03:22.479Z,337.50
2019-05-19T07:04:22.485Z,348.75
2019-05-19T07:05:22.600Z,354.38
2019-05-19T07:06:22.468Z,360.00
2019-05-19T07:07:22.441Z,354.38
2019-05-19T07:08:22.427Z,354.38
2019-05-19T07:09:22.429Z,354.38
2019-05-19T07:10:22.406Z,354.38
2019-05-19T07:11:22.435Z,354.38
2019-05-19T07:12:22.401Z,354.38
2019-05-19T07:13:22.366Z,354.38
2019-05-19T07:14:22.358Z,360.00
2019-05-19T07:15:22.368Z,360.00
2019-05-19T07:16:22.336Z,360.00
2019-05-19T07:17:22.335Z,371.25
2019-05-19T07:18:22.322Z,371.25
2019-05-19T07:19:22.319Z,371.25
2019-05-19T07:20:22.293Z,371.25
2019-05-19T07:21:22.284Z,371.25
2019-05-19T07:22:22.313Z,376.88
2019-05-19T07:23:28.205Z,376.88
2019-05-19T07:24:23.247Z,382.50
2019-05-19T07:25:22.388Z,382.50
2019-05-19T07:26:22.224Z,371.25
2019-05-19T07:27:22.214Z,382.50
2019-05-19T07:28:22.227Z,405.00
2019-05-19T07:29:22.213Z,410.62
2019-05-19T07:30:22.191Z,421.88
2019-05-19T07:31:22.170Z,427.50
2019-05-19T07:32:22.167Z,427.50
2019-05-19T07:33:22.150Z,427.50
2019-05-19T07:34:22.184Z,438.75
2019-05-19T07:35:22.236Z,433.12
2019-05-19T07:36:22.114Z,427.50
2019-05-19T07:37:22.107Z,427.50
2019-05-19T07:38:22.095Z,433.12
2019-05-19T07:39:22.080Z,433.12
2019-05-19T07:40:22.084Z,438.75
2019-05-19T07:41:22.069Z,438.75
2019-05-19T07:42:22.052Z,444.38
2019-05-19T07:43:22.150Z,450.00
2019-05-19T07:44:22.031Z,455.62
2019-05-19T07:45:22.019Z,438.75
2019-05-19T07:46:22.016Z,427.50
2019-05-19T07:47:21.997Z,455.62
2019-05-19T07:48:21.983Z,483.75
2019-05-19T07:49:21.981Z,500.62
2019-05-19T07:50:21.961Z,506.25
2019-05-19T07:51:21.955Z,506.25
2019-05-19T07:52:21.991Z,511.88
2019-05-19T07:53:21.927Z,506.25
2019-05-19T07:54:21.917Z,506.25
2019-05-19T07:55:21.925Z,517.50
2019-05-19T07:56:21.899Z,528.75
2019-05-19T07:57:21.908Z,534.38
2019-05-19T07:58:21.881Z,556.88
2019-05-19T07:59:21.868Z,573.75
2019-05-19T08:00:21.872Z,590.62
2019-05-19T08:01:21.844Z,596.25
2019-05-19T08:02:21.837Z,596.25
2019-05-19T08:03:21.824Z,624.38
2019-05-19T08:04:21.813Z,607.50
2019-05-19T08:05:21.805Z,641.25
2019-05-19T08:06:21.797Z,675.00
2019-05-19T08:07:21.774Z,731.25
2019-05-19T08:08:21.778Z,753.75
2019-05-19T08:09:21.762Z,714.38
2019-05-19T08:10:21.748Z,720.00
2019-05-19T08:11:21.760Z,714.38
2019-05-19T08:12:21.724Z,720.00
2019-05-19T08:13:21.707Z,787.50
2019-05-19T08:14:21.702Z,742.50
2019-05-19T08:15:21.693Z,759.38
2019-05-19T08:16:21.686Z,748.12
2019-05-19T08:17:21.678Z,765.00
2019-05-19T08:18:21.701Z,753.75
2019-05-19T08:19:21.773Z,697.50
2019-05-19T08:20:21.639Z,675.00
2019-05-19T08:21:21.625Z,675.00
2019-05-19T08:22:21.623Z,675.00
2019-05-19T08:23:21.598Z,663.75
2019-05-19T08:24:21.591Z,669.38
2019-05-19T08:25:21.576Z,675.00
2019-05-19T08:26:21.571Z,708.75
2019-05-19T08:27:21.598Z,1113.75
2019-05-19T08:28:21.550Z,1861.88
2019-05-19T08:29:21.539Z,2576.25
2019-05-19T08:30:21.527Z,2930.62
2019-05-19T08:31:21.518Z,3105.00
2019-05-19T08:32:21.509Z,3375.00
2019-05-19T08:33:21.510Z,3470.62
2019-05-19T08:34:21.489Z,3645.00
2019-05-19T08:35:21.469Z,3571.88
2019-05-19T08:36:21.463Z,3538.12
2019-05-19T08:37:21.447Z,3301.88
2019-05-19T08:38:21.446Z,1715.62
2019-05-19T08:39:21.439Z,675.00
2019-05-19T08:40:21.427Z,646.88
2019-05-19T08:41:21.409Z,663.75
2019-05-19T08:42:21.398Z,1861.88
2019-05-19T08:43:21.413Z,3268.12
2019-05-19T08:44:21.387Z,2317.50
2019-05-19T08:45:21.370Z,950.62
2019-05-19T08:46:21.410Z,663.75
2019-05-19T08:47:21.346Z,686.25
2019-05-19T08:48:21.336Z,1288.12
2019-05-19T08:49:21.354Z,2469.38
2019-05-19T08:50:21.309Z,3375.00
2019-05-19T08:51:21.307Z,3661.88
2019-05-19T08:52:21.288Z,3690.00
2019-05-19T08:53:21.278Z,3600.00
2019-05-19T08:54:21.283Z,3605.62
2019-05-19T08:55:21.276Z,3526.88
2019-05-19T08:56:21.244Z,3650.62
2019-05-19T08:57:21.264Z,3751.88
2019-05-19T08:58:21.229Z,3262.50
2019-05-19T08:59:21.226Z,2660.62
2019-05-19T09:00:21.208Z,2880.00
2019-05-19T09:01:21.195Z,4005.00
2019-05-19T09:02:21.254Z,3898.12
2019-05-19T09:03:21.185Z,3864.38
2019-05-19T09:04:21.162Z,3684.38
2019-05-19T09:05:21.152Z,3470.62
2019-05-19T09:06:21.140Z,3740.62
2019-05-19T09:07:21.135Z,4089.38
2019-05-19T09:08:21.133Z,4252.50
2019-05-19T09:09:21.120Z,4055.62
2019-05-19T09:10:21.139Z,3988.12
2019-05-19T09:11:21.087Z,4156.88
2019-05-19T09:12:21.078Z,4123.12
2019-05-19T09:13:21.072Z,3976.88
2019-05-19T09:14:21.063Z,3791.25
2019-05-19T09:15:21.054Z,3526.88
2019-05-19T09:16:21.057Z,3459.38
2019-05-19T09:17:21.053Z,3723.75
2019-05-19T09:18:21.024Z,4050.00
2019-05-19T09:19:21.012Z,4078.12
2019-05-19T09:20:21.027Z,3915.00
2019-05-19T09:21:20.986Z,3988.12
2019-05-19T09:22:20.984Z,4100.62
2019-05-19T09:23:20.967Z,4241.25
2019-05-19T09:24:30.199Z,4280.62
2019-05-19T09:25:21.982Z,4230.00
2019-05-19T09:26:20.946Z,4016.25
2019-05-19T09:27:20.938Z,3993.75
2019-05-19T09:28:20.914Z,4117.50
2019-05-19T09:29:20.904Z,4196.25
2019-05-19T09:30:20.915Z,4297.50
2019-05-19T09:31:20.899Z,4348.12
2019-05-19T09:32:20.877Z,4258.12
2019-05-19T09:33:20.870Z,4106.25
2019-05-19T09:34:20.926Z,3971.25
2019-05-19T09:35:20.845Z,3960.00
2019-05-19T09:36:20.855Z,4106.25
2019-05-19T09:37:20.829Z,4252.50
2019-05-19T09:38:20.814Z,4348.12
2019-05-19T09:39:20.801Z,4370.62
2019-05-19T09:40:20.809Z,4320.00
2019-05-19T09:41:20.786Z,4201.88
2019-05-19T09:42:20.790Z,4123.12
2019-05-19T09:43:20.806Z,4393.12
2019-05-19T09:44:20.756Z,4280.62
2019-05-19T09:45:20.745Z,4162.50
2019-05-19T09:46:20.737Z,4185.00
2019-05-19T09:47:20.730Z,4365.00
2019-05-19T09:48:20.713Z,4387.50
2019-05-19T09:49:20.717Z,4393.12
2019-05-19T09:50:20.694Z,4376.25
2019-05-19T09:51:20.681Z,4230.00
2019-05-19T09:52:20.674Z,3988.12
2019-05-19T09:53:20.660Z,4072.50
2019-05-19T09:54:20.659Z,4241.25
2019-05-19T09:55:20.640Z,4539.38
2019-05-19T09:56:20.630Z,4263.75
2019-05-19T09:57:20.625Z,3808.12
2019-05-19T09:58:20.612Z,3729.38
2019-05-19T09:59:20.613Z,4078.12
2019-05-19T10:00:20.591Z,4314.38
2019-05-19T10:01:20.578Z,4511.25
2019-05-19T10:02:20.570Z,4595.62
2019-05-19T10:03:20.581Z,4421.25
2019-05-19T10:04:20.569Z,4134.38
2019-05-19T10:05:20.538Z,4224.38
2019-05-19T10:06:20.534Z,4618.12
2019-05-19T10:07:20.522Z,4685.62
2019-05-19T10:08:20.525Z,4601.25
2019-05-19T10:09:20.502Z,4601.25
2019-05-19T10:10:20.507Z,4533.75
2019-05-19T10:11:20.505Z,4421.25
2019-05-19T10:12:20.474Z,4291.88
2019-05-19T10:13:20.467Z,4269.38
2019-05-19T10:14:20.454Z,4415.62
2019-05-19T10:15:20.447Z,4387.50
2019-05-19T10:16:20.426Z,4145.62
2019-05-19T10:17:20.416Z,3892.50
2019-05-19T10:18:20.409Z,1383.75
2019-05-19T10:19:20.402Z,4078.12
2019-05-19T10:20:20.417Z,4168.12
2019-05-19T10:21:20.394Z,4218.75
2019-05-19T10:22:20.372Z,4370.62
2019-05-19T10:23:20.369Z,4455.00
2019-05-19T10:24:20.361Z,4635.00
2019-05-19T10:25:22.684Z,4786.88
2019-05-19T10:26:20.355Z,4623.75
2019-05-19T10:27:21.739Z,4387.50
2019-05-19T10:28:20.307Z,4466.25
2019-05-19T10:29:20.303Z,4595.62
2019-05-19T10:30:20.293Z,4145.62
2019-05-19T10:31:20.317Z,4005.00
2019-05-19T10:32:20.279Z,4410.00
2019-05-19T10:33:20.259Z,4545.00
2019-05-19T10:34:20.252Z,4460.62
2019-05-19T10:35:20.242Z,4764.38
2019-05-19T10:36:20.237Z,4826.25
2019-05-19T10:37:20.241Z,4663.12
2019-05-19T10:38:20.214Z,4809.38
2019-05-19T10:39:20.201Z,5135.62
2019-05-19T10:40:20.192Z,3076.88
2019-05-19T10:41:20.182Z,4950.00
2019-05-19T10:42:20.169Z,4781.25
2019-05-19T10:43:20.191Z,4983.75
2019-05-19T10:44:20.150Z,5175.00
2019-05-19T10:45:20.156Z,5203.12
2019-05-19T10:46:20.133Z,5236.88
2019-05-19T10:47:20.122Z,1293.75
2019-05-19T10:48:20.114Z,1417.50
2019-05-19T10:49:20.114Z,1417.50
2019-05-19T10:50:20.090Z,1614.38
2019-05-19T10:51:20.076Z,1912.50
2019-05-19T10:52:20.093Z,5253.75
2019-05-19T10:53:20.073Z,5248.12
2019-05-19T10:54:20.060Z,2261.25
2019-05-19T10:55:20.040Z,4815.00
2019-05-19T10:56:20.035Z,4713.75
2019-05-19T10:57:20.023Z,2525.62
2019-05-19T10:58:20.020Z,1991.25
2019-05-19T10:59:20.037Z,2418.75
2019-05-19T11:00:19.992Z,4916.25
2019-05-19T11:01:19.986Z,5028.75
2019-05-19T11:02:19.986Z,4798.12
2019-05-19T11:03:19.958Z,1215.00
2019-05-19T11:04:19.971Z,1035.00
2019-05-19T11:05:19.941Z,1023.75
2019-05-19T11:06:19.943Z,1051.88
2019-05-19T11:07:19.915Z,1063.12
2019-05-19T11:08:19.912Z,1321.88
2019-05-19T11:09:19.900Z,5028.75
2019-05-19T11:10:19.908Z,5101.88
2019-05-19T11:11:19.880Z,5045.62
2019-05-19T11:12:19.875Z,5101.88
2019-05-19T11:13:19.868Z,5276.25
2019-05-19T11:14:19.854Z,5259.38
2019-05-19T11:15:19.847Z,4966.88
2019-05-19T11:16:19.827Z,5079.38
2019-05-19T11:17:19.821Z,5332.50
2019-05-19T11:18:19.809Z,4072.50
2019-05-19T11:19:19.798Z,5023.12
2019-05-19T11:20:19.807Z,1125.00
2019-05-19T11:21:19.778Z,894.38
2019-05-19T11:22:19.764Z,832.50
2019-05-19T11:23:19.758Z,860.62
2019-05-19T11:24:19.799Z,961.88
2019-05-19T11:25:33.002Z,5017.50
2019-05-19T11:26:20.722Z,4910.62
2019-05-19T11:27:19.728Z,4910.62
2019-05-19T11:28:19.707Z,5056.88
2019-05-19T11:29:19.698Z,855.00
2019-05-19T11:30:19.712Z,748.12
2019-05-19T11:31:19.675Z,1029.38
2019-05-19T11:32:19.667Z,843.75
2019-05-19T11:33:19.653Z,815.62
2019-05-19T11:34:19.655Z,1074.38
2019-05-19T11:35:19.634Z,4567.50
2019-05-19T11:36:19.630Z,4730.62
2019-05-19T11:37:19.614Z,4950.00
2019-05-19T11:38:19.605Z,5079.38
2019-05-19T11:39:19.591Z,4595.62
2019-05-19T11:40:19.579Z,4753.12
2019-05-19T11:41:19.579Z,2289.38
2019-05-19T11:42:19.562Z,4657.50
2019-05-19T11:43:19.556Z,4590.00
2019-05-19T11:44:19.538Z,4601.25
2019-05-19T11:45:19.536Z,945.00
2019-05-19T11:46:19.544Z,911.25
2019-05-19T11:47:19.507Z,838.12
2019-05-19T11:48:19.503Z,793.12
2019-05-19T11:49:19.491Z,798.75
2019-05-19T11:50:19.484Z,871.88
2019-05-19T11:51:19.471Z,1023.75
2019-05-19T11:52:19.465Z,2565.00
2019-05-19T11:53:19.455Z,1209.38
2019-05-19T11:54:19.435Z,1029.38
2019-05-19T11:55:19.433Z,2458.12
2019-05-19T11:56:19.463Z,4438.12
2019-05-19T11:57:19.408Z,4387.50
2019-05-19T11:58:19.420Z,4095.00
2019-05-19T11:59:19.391Z,3397.50
2019-05-19T12:00:19.376Z,4185.00
2019-05-19T12:01:19.371Z,4280.62
2019-05-19T12:02:19.375Z,4342.50
2019-05-19T12:03:19.345Z,4055.62
2019-05-19T12:04:19.339Z,3875.62
2019-05-19T12:05:19.334Z,4173.75
2019-05-19T12:06:19.321Z,4522.50
2019-05-19T12:07:19.310Z,4601.25
2019-05-19T12:08:19.296Z,4713.75
2019-05-19T12:09:19.292Z,1974.38
2019-05-19T12:10:19.277Z,916.88
2019-05-19T12:11:19.267Z,1490.62
2019-05-19T12:12:19.263Z,4668.75
2019-05-19T12:13:19.292Z,4117.50
2019-05-19T12:14:19.245Z,1186.88
2019-05-19T12:15:19.223Z,1080.00
2019-05-19T12:16:19.213Z,4488.75
2019-05-19T12:17:19.207Z,4702.50
2019-05-19T12:18:19.201Z,4798.12
2019-05-19T12:19:19.197Z,4353.75
2019-05-19T12:20:19.170Z,4134.38
2019-05-19T12:21:19.169Z,4111.88
2019-05-19T12:22:19.154Z,4089.38
2019-05-19T12:23:19.145Z,4151.25
2019-05-19T12:24:19.148Z,4258.12
2019-05-19T12:25:19.128Z,4128.75
2019-05-19T12:26:23.111Z,4224.38
2019-05-19T12:27:19.102Z,4567.50
2019-05-19T12:28:19.095Z,4680.00
2019-05-19T12:29:19.110Z,4556.25
2019-05-19T12:30:19.081Z,4421.25
2019-05-19T12:31:19.102Z,4511.25
2019-05-19T12:32:19.068Z,4657.50
2019-05-19T12:33:19.047Z,4629.38
2019-05-19T12:34:19.038Z,1248.75